createdAt,value
2022-09-02T00:01:38.151Z,101797.00
2022-09-02T00:04:10.604Z,101803.00
2022-09-02T00:06:38.238Z,101807.00
2022-09-02T00:09:07.983Z,101808.00
2022-09-02T00:11:38.686Z,101804.00
2022-09-02T00:14:15.108Z,101809.00
2022-09-02T00:16:42.660Z,101798.00
2022-09-02T00:19:11.105Z,101795.00
2022-09-02T00:21:38.094Z,101795.00
2022-09-02T00:24:06.493Z,101800.00
2022-09-02T00:26:33.292Z,101784.00
2022-09-02T00:29:00.070Z,101788.00
2022-09-02T00:31:29.180Z,101795.00
2022-09-02T00:33:56.508Z,101794.00
2022-09-02T00:36:23.366Z,101802.00
2022-09-02T00:38:50.550Z,101790.00
2022-09-02T00:41:22.860Z,101791.00
2022-09-02T00:44:02.371Z,101789.00
2022-09-02T00:46:32.242Z,101788.00
2022-09-02T00:49:30.384Z,101787.00
2022-09-02T00:52:29.977Z,101784.00
2022-09-02T00:55:11.250Z,101788.00
2022-09-02T00:57:49.983Z,101779.00
2022-09-02T01:00:24.431Z,101783.00
2022-09-02T01:02:57.661Z,101778.00
2022-09-02T01:05:29.844Z,101783.00
2022-09-02T01:07:58.790Z,101777.00
2022-09-02T01:10:35.167Z,101785.00
2022-09-02T01:13:09.830Z,101774.00
2022-09-02T01:15:51.943Z,101767.00
2022-09-02T01:18:25.845Z,101774.00
2022-09-02T01:20:52.914Z,101781.00
2022-09-02T01:23:20.052Z,101768.00
2022-09-02T01:25:48.159Z,101768.00
2022-09-02T01:28:19.498Z,101773.00
2022-09-02T01:30:53.098Z,101771.00
2022-09-02T01:33:23.091Z,101771.00
2022-09-02T01:35:53.607Z,101772.00
2022-09-02T01:38:22.352Z,101771.00
2022-09-02T01:40:49.407Z,101761.00
2022-09-02T01:43:21.777Z,101768.00
2022-09-02T01:45:52.190Z,101764.00
2022-09-02T01:48:21.854Z,101762.00
2022-09-02T01:51:00.667Z,101774.00
2022-09-02T01:53:29.860Z,101772.00
2022-09-02T01:55:56.989Z,101774.00
2022-09-02T01:58:24.190Z,101762.00
2022-09-02T02:00:51.325Z,101763.00
2022-09-02T02:03:18.733Z,101756.00
2022-09-02T02:05:45.736Z,101769.00
2022-09-02T02:08:12.518Z,101760.00
2022-09-02T02:10:43.049Z,101760.00
2022-09-02T02:13:10.815Z,101765.00
2022-09-02T02:15:41.366Z,101760.00
2022-09-02T02:18:09.332Z,101740.00
2022-09-02T02:20:37.794Z,101761.00
2022-09-02T02:23:07.192Z,101748.00
2022-09-02T02:25:34.700Z,101757.00
2022-09-02T02:28:02.724Z,101753.00
2022-09-02T02:30:29.682Z,101749.00
2022-09-02T02:32:56.650Z,101750.00
2022-09-02T02:35:24.048Z,101751.00
2022-09-02T02:37:51.708Z,101745.00
2022-09-02T02:40:22.911Z,101755.00
2022-09-02T02:42:53.206Z,101751.00
2022-09-02T02:45:20.883Z,101757.00
2022-09-02T02:47:47.635Z,101750.00
2022-09-02T02:50:18.061Z,101748.00
2022-09-02T02:52:45.966Z,101753.00
2022-09-02T02:55:14.724Z,101749.00
2022-09-02T02:57:44.459Z,101744.00
2022-09-02T03:00:18.251Z,101740.00
2022-09-02T03:02:45.359Z,101745.00
2022-09-02T03:05:14.364Z,101746.00
2022-09-02T03:07:42.562Z,101749.00
2022-09-02T03:10:12.846Z,101743.00
2022-09-02T03:12:41.034Z,101747.00
2022-09-02T03:15:11.313Z,101745.00
2022-09-02T03:17:38.668Z,101748.00
2022-09-02T03:20:07.916Z,101743.00
2022-09-02T03:22:37.858Z,101747.00
2022-09-02T03:25:10.800Z,101734.00
2022-09-02T03:27:39.110Z,101733.00
2022-09-02T03:30:10.457Z,101738.00
2022-09-02T03:32:37.606Z,101730.00
2022-09-02T03:35:08.490Z,101729.00
2022-09-02T03:37:36.826Z,101730.00
2022-09-02T03:40:11.728Z,101736.00
2022-09-02T03:42:39.406Z,101736.00
2022-09-02T03:45:11.231Z,101729.00
2022-09-02T03:47:43.873Z,101724.00
2022-09-02T03:50:11.224Z,101737.00
2022-09-02T03:52:38.139Z,101733.00
2022-09-02T03:55:06.448Z,101737.00
2022-09-02T03:57:36.210Z,101734.00
2022-09-02T04:00:08.359Z,101725.00
2022-09-02T04:02:35.719Z,101736.00
2022-09-02T04:05:02.999Z,101730.00
2022-09-02T04:07:29.958Z,101728.00
2022-09-02T04:09:56.763Z,101729.00
2022-09-02T04:12:23.966Z,101734.00
2022-09-02T04:14:58.996Z,101737.00
2022-09-02T04:17:25.746Z,101734.00
2022-09-02T04:19:54.978Z,101738.00
2022-09-02T04:22:22.026Z,101731.00
2022-09-02T04:24:48.993Z,101736.00
2022-09-02T04:27:15.776Z,101731.00
2022-09-02T04:29:42.576Z,101732.00
2022-09-02T04:32:09.356Z,101738.00
2022-09-02T04:34:36.173Z,101733.00
2022-09-02T04:37:03.271Z,101735.00
2022-09-02T04:39:30.070Z,101738.00
2022-09-02T04:41:57.036Z,101739.00
2022-09-02T04:44:23.896Z,101731.00
2022-09-02T04:46:50.673Z,101740.00
2022-09-02T04:49:17.676Z,101734.00
2022-09-02T04:51:44.588Z,101739.00
2022-09-02T04:54:11.621Z,101741.00
2022-09-02T04:56:38.489Z,101734.00
2022-09-02T04:59:05.809Z,101744.00
2022-09-02T05:01:35.491Z,101745.00
2022-09-02T05:04:10.033Z,101746.00
2022-09-02T05:06:41.993Z,101748.00
2022-09-02T05:09:10.845Z,101755.00
2022-09-02T05:11:38.835Z,101746.00
2022-09-02T05:14:07.289Z,101739.00
2022-09-02T05:16:38.405Z,101745.00
2022-09-02T05:19:07.522Z,101746.00
2022-09-02T05:21:34.399Z,101740.00
2022-09-02T05:24:01.388Z,101749.00
2022-09-02T05:26:28.216Z,101754.00
2022-09-02T05:28:55.037Z,101760.00
2022-09-02T05:31:22.371Z,101753.00
2022-09-02T05:33:49.318Z,101757.00
2022-09-02T05:36:21.853Z,101755.00
2022-09-02T05:38:49.740Z,101754.00
2022-09-02T05:41:23.438Z,101753.00
2022-09-02T05:44:03.688Z,101750.00
2022-09-02T05:46:31.299Z,101747.00
2022-09-02T05:49:09.075Z,101748.00
2022-09-02T05:51:42.531Z,101748.00
2022-09-02T05:54:16.392Z,101749.00
2022-09-02T05:56:45.406Z,101749.00
2022-09-02T05:59:13.007Z,101756.00
2022-09-02T06:01:40.160Z,101759.00
2022-09-02T06:04:08.089Z,101756.00
2022-09-02T06:06:37.581Z,101764.00
2022-09-02T06:09:12.259Z,101765.00
2022-09-02T06:11:46.048Z,101754.00
2022-09-02T06:14:17.216Z,101760.00
2022-09-02T06:16:45.600Z,101759.00
2022-09-02T06:19:17.638Z,101759.00
2022-09-02T06:21:48.435Z,101756.00
2022-09-02T06:24:15.370Z,101761.00
2022-09-02T06:26:42.599Z,101753.00
2022-09-02T06:29:11.574Z,101756.00
2022-09-02T06:31:42.616Z,101767.00
2022-09-02T06:34:13.637Z,101761.00
2022-09-02T06:36:42.072Z,101757.00
2022-09-02T06:39:13.525Z,101752.00
2022-09-02T06:41:42.666Z,101754.00
2022-09-02T06:44:12.245Z,101754.00
2022-09-02T06:46:47.771Z,101758.00
2022-09-02T06:49:16.633Z,101765.00
2022-09-02T06:51:48.532Z,101755.00
2022-09-02T06:54:19.861Z,101757.00
2022-09-02T06:56:49.692Z,101754.00
2022-09-02T06:59:19.153Z,101754.00
2022-09-02T07:01:47.175Z,101754.00
2022-09-02T07:04:34.388Z,101752.00
2022-09-02T07:07:03.870Z,101755.00
2022-09-02T07:09:33.405Z,101753.00
2022-09-02T07:12:04.926Z,101743.00
2022-09-02T07:14:38.563Z,101752.00
2022-09-02T07:17:06.704Z,101753.00
2022-09-02T07:19:33.768Z,101757.00
2022-09-02T07:22:00.751Z,101759.00
2022-09-02T07:24:27.722Z,101755.00
2022-09-02T07:26:55.256Z,101756.00
2022-09-02T07:29:23.287Z,101766.00
2022-09-02T07:31:50.228Z,101762.00
2022-09-02T07:34:18.515Z,101755.00
2022-09-02T07:36:48.626Z,101750.00
2022-09-02T07:39:18.406Z,101759.00
2022-09-02T07:41:50.274Z,101759.00
2022-09-02T07:44:18.725Z,101754.00
2022-09-02T07:46:46.471Z,101757.00
2022-09-02T07:49:15.601Z,101759.00
2022-09-02T07:51:49.093Z,101759.00
2022-09-02T07:54:19.914Z,101757.00
2022-09-02T07:56:47.228Z,101765.00
2022-09-02T07:59:14.074Z,101765.00
2022-09-02T08:04:18.720Z,101749.00
2022-09-02T08:06:45.839Z,101760.00
2022-09-02T08:09:13.043Z,101758.00
2022-09-02T08:11:45.159Z,101767.00
2022-09-02T08:14:17.733Z,101754.00
2022-09-02T08:16:46.748Z,101754.00
2022-09-02T08:19:15.126Z,101761.00
2022-09-02T08:21:42.172Z,101757.00
2022-09-02T08:24:09.853Z,101764.00
2022-09-02T08:26:37.272Z,101760.00
2022-09-02T08:29:06.415Z,101759.00
2022-09-02T08:31:34.430Z,101755.00
2022-09-02T08:34:01.599Z,101755.00
2022-09-02T08:36:28.875Z,101755.00
2022-09-02T08:38:55.958Z,101754.00
2022-09-02T08:41:28.774Z,101754.00
2022-09-02T08:44:01.844Z,101750.00
2022-09-02T08:46:32.194Z,101745.00
2022-09-02T08:49:15.962Z,101748.00
2022-09-02T08:52:00.925Z,101747.00
2022-09-02T08:54:37.502Z,101752.00
2022-09-02T08:57:05.296Z,101737.00
2022-09-02T08:59:32.662Z,101742.00
2022-09-02T09:02:20.658Z,101747.00
2022-09-02T09:05:14.186Z,101750.00
2022-09-02T09:08:14.399Z,101741.00
2022-09-02T09:11:01.009Z,101743.00
2022-09-02T09:14:16.309Z,101731.00
2022-09-02T09:17:01.673Z,101733.00
2022-09-02T09:19:58.546Z,101737.00
2022-09-02T09:22:33.481Z,101735.00
2022-09-02T09:25:00.846Z,101730.00
2022-09-02T09:27:28.293Z,101729.00
2022-09-02T09:29:55.083Z,101723.00
2022-09-02T09:32:30.661Z,101726.00
2022-09-02T09:35:02.739Z,101716.00
2022-09-02T09:37:36.312Z,101723.00
2022-09-02T09:40:21.978Z,101721.00
2022-09-02T09:42:57.168Z,101713.00
2022-09-02T09:45:35.828Z,101724.00
2022-09-02T09:48:23.073Z,101717.00
2022-09-02T09:51:13.042Z,101704.00
2022-09-02T09:53:40.048Z,101710.00
2022-09-02T09:56:16.352Z,101709.00
2022-09-02T09:58:46.865Z,101717.00
2022-09-02T10:01:33.713Z,101710.00
2022-09-02T10:04:44.188Z,101705.00
2022-09-02T10:07:13.666Z,101699.00
2022-09-02T10:09:40.984Z,101710.00
2022-09-02T10:12:13.335Z,101702.00
2022-09-02T10:14:47.530Z,101696.00
2022-09-02T10:18:14.026Z,101694.00
2022-09-02T10:21:16.249Z,101694.00
2022-09-02T10:24:11.309Z,101712.00
2022-09-02T10:26:49.347Z,101696.00
2022-09-02T10:30:03.197Z,101684.00
2022-09-02T10:33:02.033Z,101686.00
2022-09-02T10:35:47.192Z,101690.00
2022-09-02T10:38:44.066Z,101676.00
2022-09-02T10:41:31.848Z,101683.00
2022-09-02T10:44:38.998Z,101684.00
2022-09-02T10:47:35.712Z,101683.00
2022-09-02T10:50:13.741Z,101679.00
2022-09-02T10:53:28.970Z,101685.00
2022-09-02T10:56:10.046Z,101682.00
2022-09-02T10:58:48.765Z,101681.00
2022-09-02T11:01:31.166Z,101678.00
2022-09-02T11:04:37.832Z,101680.00
2022-09-02T11:07:10.799Z,101682.00
2022-09-02T11:10:05.665Z,101679.00
2022-09-02T11:12:40.486Z,101682.00
2022-09-02T11:15:22.041Z,101679.00
2022-09-02T11:21:00.885Z,101666.00
2022-09-02T11:24:00.113Z,101663.00
2022-09-02T11:26:38.405Z,101672.00
2022-09-02T11:29:30.241Z,101673.00
2022-09-02T11:32:22.467Z,101667.00
2022-09-02T11:34:56.986Z,101662.00
2022-09-02T11:37:41.687Z,101655.00
2022-09-02T11:40:36.589Z,101663.00
2022-09-02T11:43:37.527Z,101663.00
2022-09-02T11:46:42.743Z,101656.00
2022-09-02T11:49:55.692Z,101651.00
2022-09-02T11:52:58.075Z,101652.00
2022-09-02T11:55:40.105Z,101655.00
2022-09-02T11:58:06.940Z,101657.00
2022-09-02T12:00:55.333Z,101652.00
2022-09-02T12:03:58.713Z,101650.00
2022-09-02T12:06:20.987Z,101649.00
2022-09-02T12:08:48.900Z,101646.00
2022-09-02T12:11:38.347Z,101649.00
2022-09-02T12:14:08.033Z,101639.00
2022-09-02T12:16:41.738Z,101641.00
2022-09-02T12:19:13.257Z,101631.00
2022-09-02T12:22:27.305Z,101618.00
2022-09-02T12:24:59.899Z,101607.00
2022-09-02T12:27:37.857Z,101607.00
2022-09-02T12:30:10.034Z,101605.00
2022-09-02T12:32:46.304Z,101602.00
2022-09-02T12:35:49.950Z,101604.00
2022-09-02T12:38:52.482Z,101603.00
2022-09-02T12:41:28.744Z,101600.00
2022-09-02T12:44:18.624Z,101597.00
2022-09-02T12:46:55.590Z,101600.00
2022-09-02T12:49:48.409Z,101599.00
2022-09-02T12:52:49.065Z,101596.00
2022-09-02T12:55:34.232Z,101601.00
2022-09-02T12:58:11.264Z,101587.00
2022-09-02T13:00:46.333Z,101584.00
2022-09-02T13:03:52.216Z,101582.00
2022-09-02T13:06:44.563Z,101576.00
2022-09-02T13:09:45.183Z,101585.00
2022-09-02T13:12:59.559Z,101590.00
2022-09-02T13:16:18.848Z,101577.00
2022-09-02T13:19:16.634Z,101577.00
2022-09-02T13:22:18.305Z,101569.00
2022-09-02T13:25:13.169Z,101576.00
2022-09-02T13:28:14.063Z,101568.00
2022-09-02T13:31:22.724Z,101570.00
2022-09-02T13:34:11.076Z,101573.00
2022-09-02T13:36:44.423Z,101575.00
2022-09-02T13:39:24.057Z,101570.00
2022-09-02T13:41:51.322Z,101570.00
2022-09-02T13:44:31.661Z,101568.00
2022-09-02T13:47:17.744Z,101563.00
2022-09-02T13:49:48.350Z,101556.00
2022-09-02T13:53:05.644Z,101557.00
2022-09-02T13:55:15.497Z,101555.00
2022-09-02T13:58:08.919Z,101559.00
2022-09-02T14:00:39.004Z,101544.00
2022-09-02T14:03:16.730Z,101540.00
2022-09-02T14:05:52.474Z,101537.00
2022-09-02T14:08:26.933Z,101532.00
2022-09-02T14:10:54.854Z,101535.00
2022-09-02T14:13:23.407Z,101528.00
2022-09-02T14:15:50.499Z,101531.00
2022-09-02T14:18:21.143Z,101533.00
2022-09-02T14:21:10.241Z,101527.00
2022-09-02T14:23:48.917Z,101533.00
2022-09-02T14:26:30.896Z,101535.00
2022-09-02T14:28:58.249Z,101526.00
2022-09-02T14:31:30.817Z,101519.00
2022-09-02T14:33:58.390Z,101527.00
2022-09-02T14:36:25.106Z,101529.00
2022-09-02T14:39:09.541Z,101519.00
2022-09-02T14:41:42.680Z,101519.00
2022-09-02T14:44:22.516Z,101520.00
2022-09-02T14:46:54.626Z,101524.00
2022-09-02T14:49:29.820Z,101519.00
2022-09-02T14:52:00.878Z,101511.00
2022-09-02T14:54:59.951Z,101522.00
2022-09-02T14:57:38.947Z,101514.00
2022-09-02T15:00:18.568Z,101523.00
2022-09-02T15:02:49.662Z,101516.00
2022-09-02T15:05:16.613Z,101514.00
2022-09-02T15:07:45.871Z,101510.00
2022-09-02T15:10:12.675Z,101500.00
2022-09-02T15:12:52.222Z,101509.00
2022-09-02T15:15:19.429Z,101515.00
2022-09-02T15:17:46.234Z,101493.00
2022-09-02T15:20:13.093Z,101500.00
2022-09-02T15:22:40.100Z,101497.00
2022-09-02T15:25:08.552Z,101499.00
2022-09-02T15:27:36.999Z,101485.00
2022-09-02T15:30:06.266Z,101501.00
2022-09-02T15:32:33.080Z,101496.00
2022-09-02T15:34:59.888Z,101497.00
2022-09-02T15:37:27.606Z,101496.00
2022-09-02T15:39:54.472Z,101494.00
2022-09-02T15:42:21.436Z,101496.00
2022-09-02T15:44:48.262Z,101493.00
2022-09-02T15:47:15.103Z,101497.00
2022-09-02T15:49:41.885Z,101496.00
2022-09-02T15:52:08.733Z,101496.00
2022-09-02T15:54:35.477Z,101496.00
2022-09-02T15:57:02.345Z,101494.00
2022-09-02T15:59:29.130Z,101492.00
2022-09-02T16:01:56.884Z,101495.00
2022-09-02T16:04:24.070Z,101497.00
2022-09-02T16:06:53.234Z,101496.00
2022-09-02T16:09:20.258Z,101494.00
2022-09-02T16:11:51.766Z,101492.00
2022-09-02T16:14:20.788Z,101489.00
2022-09-02T16:16:49.528Z,101496.00
2022-09-02T16:19:20.290Z,101492.00
2022-09-02T16:21:47.786Z,101488.00
2022-09-02T16:24:14.610Z,101486.00
2022-09-02T16:26:42.332Z,101490.00
2022-09-02T16:29:13.870Z,101482.00
2022-09-02T16:31:43.464Z,101478.00
2022-09-02T16:34:16.965Z,101483.00
2022-09-02T16:36:52.875Z,101475.00
2022-09-02T16:39:20.910Z,101479.00
2022-09-02T16:41:51.558Z,101476.00
2022-09-02T16:44:20.997Z,101475.00
2022-09-02T16:46:50.215Z,101469.00
2022-09-02T16:49:20.993Z,101470.00
2022-09-02T16:51:50.994Z,101481.00
2022-09-02T16:54:31.402Z,101471.00
2022-09-02T16:57:00.710Z,101475.00
2022-09-02T16:59:27.687Z,101466.00
2022-09-02T17:01:54.457Z,101470.00
2022-09-02T17:04:21.236Z,101470.00
2022-09-02T17:06:48.144Z,101468.00
2022-09-02T17:09:16.319Z,101470.00
2022-09-02T17:11:45.624Z,101471.00
2022-09-02T17:14:16.781Z,101465.00
2022-09-02T17:16:49.545Z,101470.00
2022-09-02T17:19:22.358Z,101464.00
2022-09-02T17:21:52.178Z,101471.00
2022-09-02T17:24:22.665Z,101471.00
2022-09-02T17:26:54.236Z,101480.00
2022-09-02T17:32:09.753Z,101478.00
2022-09-02T17:34:37.131Z,101471.00
2022-09-02T17:37:05.191Z,101470.00
2022-09-02T17:39:34.559Z,101482.00
2022-09-02T17:42:05.147Z,101468.00
2022-09-02T17:44:36.456Z,101472.00
2022-09-02T17:47:11.137Z,101480.00
2022-09-02T17:49:41.233Z,101475.00
2022-09-02T17:52:09.226Z,101477.00
2022-09-02T17:54:38.761Z,101476.00
2022-09-02T17:57:20.386Z,101476.00
2022-09-02T18:00:12.495Z,101473.00
2022-09-02T18:02:42.262Z,101472.00
2022-09-02T18:05:36.750Z,101471.00
2022-09-02T18:08:35.565Z,101464.00
2022-09-02T18:11:05.714Z,101470.00
2022-09-02T18:14:13.893Z,101471.00
2022-09-02T18:17:04.947Z,101472.00
2022-09-02T18:19:53.904Z,101484.00
2022-09-02T18:22:45.043Z,101490.00
2022-09-02T18:25:37.763Z,101486.00
2022-09-02T18:28:45.033Z,101483.00
2022-09-02T18:31:40.707Z,101488.00
2022-09-02T18:34:52.199Z,101498.00
2022-09-02T18:38:06.749Z,101485.00
2022-09-02T18:41:24.088Z,101496.00
2022-09-02T18:44:23.851Z,101490.00
2022-09-02T18:47:19.864Z,101486.00
2022-09-02T18:49:48.849Z,101497.00
2022-09-02T18:52:16.269Z,101494.00
2022-09-02T18:54:57.637Z,101494.00
2022-09-02T18:57:32.872Z,101510.00
2022-09-02T19:00:08.852Z,101507.00
2022-09-02T19:03:01.733Z,101502.00
2022-09-02T19:05:32.579Z,101502.00
2022-09-02T19:08:23.478Z,101516.00
2022-09-02T19:11:02.285Z,101506.00
2022-09-02T19:13:41.713Z,101504.00
2022-09-02T19:16:08.567Z,101516.00
2022-09-02T19:18:35.399Z,101510.00
2022-09-02T19:21:03.870Z,101506.00
2022-09-02T19:23:31.588Z,101508.00
2022-09-02T19:25:59.279Z,101516.00
2022-09-02T19:28:26.955Z,101511.00
2022-09-02T19:31:01.964Z,101523.00
2022-09-02T19:33:31.418Z,101524.00
2022-09-02T19:35:59.301Z,101523.00
2022-09-02T19:38:27.417Z,101510.00
2022-09-02T19:40:54.933Z,101513.00
2022-09-02T19:43:21.696Z,101528.00
2022-09-02T19:45:51.747Z,101524.00
2022-09-02T19:48:19.927Z,101519.00
2022-09-02T19:50:48.628Z,101524.00
2022-09-02T19:53:32.901Z,101530.00
2022-09-02T19:56:00.503Z,101526.00
2022-09-02T19:58:27.334Z,101533.00
2022-09-02T20:00:55.980Z,101520.00
2022-09-02T20:03:22.785Z,101528.00
2022-09-02T20:05:52.402Z,101526.00
2022-09-02T20:08:20.070Z,101524.00
2022-09-02T20:10:58.298Z,101523.00
2022-09-02T20:13:27.248Z,101525.00
2022-09-02T20:15:54.825Z,101522.00
2022-09-02T20:18:24.659Z,101527.00
2022-09-02T20:20:54.874Z,101528.00
2022-09-02T20:23:22.990Z,101537.00
2022-09-02T20:26:23.939Z,101529.00
2022-09-02T20:29:43.581Z,101526.00
2022-09-02T20:32:55.434Z,101531.00
2022-09-02T20:35:57.982Z,101541.00
2022-09-02T20:38:58.607Z,101534.00
2022-09-02T20:41:56.827Z,101539.00
2022-09-02T20:45:06.597Z,101536.00
2022-09-02T20:48:03.325Z,101533.00
2022-09-02T20:50:57.923Z,101537.00
2022-09-02T20:54:03.761Z,101552.00
2022-09-02T20:57:17.992Z,101547.00
2022-09-02T21:00:09.717Z,101545.00
2022-09-02T21:02:55.535Z,101551.00
2022-09-02T21:05:52.447Z,101549.00
2022-09-02T21:08:56.983Z,101554.00
2022-09-02T21:11:29.374Z,101553.00
2022-09-02T21:14:20.727Z,101555.00
2022-09-02T21:17:02.666Z,101550.00
2022-09-02T21:19:43.000Z,101552.00
2022-09-02T21:22:19.049Z,101542.00
2022-09-02T21:25:02.235Z,101553.00
2022-09-02T21:27:58.658Z,101548.00
2022-09-02T21:30:30.845Z,101551.00
2022-09-02T21:33:08.676Z,101558.00
2022-09-02T21:35:49.830Z,101557.00
2022-09-02T21:38:44.672Z,101556.00
2022-09-02T21:41:38.911Z,101546.00
2022-09-02T21:44:21.764Z,101557.00
2022-09-02T21:47:19.829Z,101548.00
2022-09-02T21:50:34.201Z,101553.00
2022-09-02T21:53:40.038Z,101547.00
2022-09-02T21:56:32.950Z,101554.00
2022-09-02T21:59:22.641Z,101551.00
2022-09-02T22:02:10.584Z,101554.00
2022-09-02T22:04:46.765Z,101545.00
2022-09-02T22:07:44.911Z,101539.00
2022-09-02T22:11:01.887Z,101557.00
2022-09-02T22:13:33.349Z,101543.00
2022-09-02T22:16:19.001Z,101557.00
2022-09-02T22:19:02.327Z,101551.00
2022-09-02T22:21:48.430Z,101550.00
2022-09-02T22:24:28.747Z,101557.00
2022-09-02T22:27:17.120Z,101550.00
2022-09-02T22:29:57.204Z,101552.00
2022-09-02T22:32:31.849Z,101545.00
2022-09-02T22:35:47.021Z,101557.00
2022-09-02T22:38:28.162Z,101559.00
2022-09-02T22:41:06.353Z,101552.00
2022-09-02T22:43:46.163Z,101562.00
2022-09-02T22:46:48.235Z,101547.00
2022-09-02T22:49:38.863Z,101561.00
2022-09-02T22:52:45.247Z,101554.00
2022-09-02T22:55:14.697Z,101551.00
2022-09-02T22:57:54.232Z,101555.00
2022-09-02T23:00:23.024Z,101547.00
2022-09-02T23:03:16.952Z,101552.00
2022-09-02T23:05:57.049Z,101553.00
2022-09-02T23:08:24.226Z,101545.00
2022-09-02T23:11:16.490Z,101554.00
2022-09-02T23:14:10.623Z,101545.00
2022-09-02T23:17:20.835Z,101540.00
2022-09-02T23:20:12.586Z,101542.00
2022-09-02T23:23:15.234Z,101538.00
2022-09-02T23:26:22.907Z,101531.00
2022-09-02T23:29:14.619Z,101532.00
2022-09-02T23:32:25.945Z,101524.00
2022-09-02T23:35:37.891Z,101534.00
2022-09-02T23:38:44.175Z,101528.00
2022-09-02T23:41:12.581Z,101527.00
2022-09-02T23:43:42.804Z,101528.00
2022-09-02T23:46:33.198Z,101523.00
2022-09-02T23:49:38.864Z,101523.00
2022-09-02T23:52:33.346Z,101513.00
2022-09-02T23:55:16.587Z,101510.00
2022-09-02T23:58:09.636Z,101516.00
